sensor_id;sensor_type;location;lat;lon;timestamp;temperature;humidity
1377;DHT22;682;52.502;13.488;2023-04-23T00:01:33;15.60;1.00
1377;DHT22;682;52.502;13.488;2023-04-23T00:04:05;15.60;1.00
1377;DHT22;682;52.502;13.488;2023-04-23T00:06:35;15.50;1.00
1377;DHT22;682;52.502;13.488;2023-04-23T00:09:02;15.50;1.00
1377;DHT22;682;52.502;13.488;2023-04-23T00:11:30;15.50;1.00
1377;DHT22;682;52.502;13.488;2023-04-23T00:13:57;15.50;1.00
1377;DHT22;682;52.502;13.488;2023-04-23T00:16:26;15.50;1.00
1377;DHT22;682;52.502;13.488;2023-04-23T00:18:53;15.50;1.00
1377;DHT22;682;52.502;13.488;2023-04-23T00:21:21;15.50;1.00
1377;DHT22;682;52.502;13.488;2023-04-23T00:23:50;15.50;1.00
1377;DHT22;682;52.502;13.488;2023-04-23T00:26:17;15.60;1.00
1377;DHT22;682;52.502;13.488;2023-04-23T00:28:45;15.50;1.00
1377;DHT22;682;52.502;13.488;2023-04-23T00:31:12;15.50;1.00
1377;DHT22;682;52.502;13.488;2023-04-23T00:33:39;15.40;1.00
1377;DHT22;682;52.502;13.488;2023-04-23T00:36:07;15.40;1.00
1377;DHT22;682;52.502;13.488;2023-04-23T00:38:34;15.40;1.00
1377;DHT22;682;52.502;13.488;2023-04-23T00:41:05;15.40;1.00
1377;DHT22;682;52.502;13.488;2023-04-23T00:43:32;15.50;1.00
1377;DHT22;682;52.502;13.488;2023-04-23T00:45:59;15.60;1.00
1377;DHT22;682;52.502;13.488;2023-04-23T00:48:28;15.60;1.00
1377;DHT22;682;52.502;13.488;2023-04-23T00:50:58;15.70;1.00
1377;DHT22;682;52.502;13.488;2023-04-23T00:53:25;15.80;1.00
1377;DHT22;682;52.502;13.488;2023-04-23T00:55:52;15.90;1.00
1377;DHT22;682;52.502;13.488;2023-04-23T00:58:21;15.90;1.00
1377;DHT22;682;52.502;13.488;2023-04-23T01:00:49;16.00;1.00
1377;DHT22;682;52.502;13.488;2023-04-23T01:03:17;16.00;1.00
1377;DHT22;682;52.502;13.488;2023-04-23T01:05:47;15.90;1.00
1377;DHT22;682;52.502;13.488;2023-04-23T01:08:16;15.90;1.00
1377;DHT22;682;52.502;13.488;2023-04-23T01:10:43;15.80;1.00
1377;DHT22;682;52.502;13.488;2023-04-23T01:13:13;15.80;1.00
1377;DHT22;682;52.502;13.488;2023-04-23T01:15:42;15.70;1.00
1377;DHT22;682;52.502;13.488;2023-04-23T01:18:10;15.70;1.00
1377;DHT22;682;52.502;13.488;2023-04-23T01:20:39;15.80;1.00
1377;DHT22;682;52.502;13.488;2023-04-23T01:23:09;15.70;1.00
1377;DHT22;682;52.502;13.488;2023-04-23T01:25:36;15.70;1.00
1377;DHT22;682;52.502;13.488;2023-04-23T01:28:04;15.60;1.00
1377;DHT22;682;52.502;13.488;2023-04-23T01:30:32;15.50;1.00
1377;DHT22;682;52.502;13.488;2023-04-23T01:33:00;15.50;1.00
1377;DHT22;682;52.502;13.488;2023-04-23T01:35:27;15.50;1.00
1377;DHT22;682;52.502;13.488;2023-04-23T01:37:55;15.50;1.00
1377;DHT22;682;52.502;13.488;2023-04-23T01:40:24;15.50;1.00
1377;DHT22;682;52.502;13.488;2023-04-23T01:42:51;15.50;1.00
1377;DHT22;682;52.502;13.488;2023-04-23T01:45:18;15.40;1.00
1377;DHT22;682;52.502;13.488;2023-04-23T01:47:46;15.50;1.00
1377;DHT22;682;52.502;13.488;2023-04-23T01:50:13;15.50;1.00
1377;DHT22;682;52.502;13.488;2023-04-23T01:52:40;15.50;1.00
1377;DHT22;682;52.502;13.488;2023-04-23T01:55:07;15.40;1.00
1377;DHT22;682;52.502;13.488;2023-04-23T01:57:35;15.50;1.00
1377;DHT22;682;52.502;13.488;2023-04-23T02:00:05;15.60;1.00
1377;DHT22;682;52.502;13.488;2023-04-23T02:02:33;15.60;1.00
1377;DHT22;682;52.502;13.488;2023-04-23T02:05:01;15.50;1.00
1377;DHT22;682;52.502;13.488;2023-04-23T02:07:29;15.50;1.00
1377;DHT22;682;52.502;13.488;2023-04-23T02:09:56;15.50;1.00
1377;DHT22;682;52.502;13.488;2023-04-23T02:12:23;15.50;1.00
1377;DHT22;682;52.502;13.488;2023-04-23T02:14:52;15.40;1.00
1377;DHT22;682;52.502;13.488;2023-04-23T02:17:20;15.50;1.00
1377;DHT22;682;52.502;13.488;2023-04-23T02:19:47;15.50;1.00
1377;DHT22;682;52.502;13.488;2023-04-23T02:22:15;15.40;1.00
1377;DHT22;682;52.502;13.488;2023-04-23T02:24:42;15.40;1.00
1377;DHT22;682;52.502;13.488;2023-04-23T02:27:09;15.10;1.00
1377;DHT22;682;52.502;13.488;2023-04-23T02:29:36;14.60;1.00
1377;DHT22;682;52.502;13.488;2023-04-23T02:32:05;14.10;1.00
1377;DHT22;682;52.502;13.488;2023-04-23T02:34:32;13.80;1.00
1377;DHT22;682;52.502;13.488;2023-04-23T02:36:59;13.60;1.00
1377;DHT22;682;52.502;13.488;2023-04-23T02:39:26;13.40;1.00
1377;DHT22;682;52.502;13.488;2023-04-23T02:41:53;13.30;1.00
1377;DHT22;682;52.502;13.488;2023-04-23T02:44:20;13.10;1.00
1377;DHT22;682;52.502;13.488;2023-04-23T02:46:47;13.10;1.00
1377;DHT22;682;52.502;13.488;2023-04-23T02:49:16;13.00;1.00
1377;DHT22;682;52.502;13.488;2023-04-23T02:51:44;12.90;1.00
1377;DHT22;682;52.502;13.488;2023-04-23T02:54:11;12.80;1.00
1377;DHT22;682;52.502;13.488;2023-04-23T02:56:39;12.60;1.00
1377;DHT22;682;52.502;13.488;2023-04-23T02:59:06;12.50;1.00
1377;DHT22;682;52.502;13.488;2023-04-23T03:01:33;12.50;1.00
1377;DHT22;682;52.502;13.488;2023-04-23T03:04:01;12.50;1.00
1377;DHT22;682;52.502;13.488;2023-04-23T03:06:33;12.60;1.00
1377;DHT22;682;52.502;13.488;2023-04-23T03:09:01;12.60;1.00
1377;DHT22;682;52.502;13.488;2023-04-23T03:11:29;12.70;1.00
1377;DHT22;682;52.502;13.488;2023-04-23T03:13:57;12.80;1.00
1377;DHT22;682;52.502;13.488;2023-04-23T03:16:25;12.70;1.00
1377;DHT22;682;52.502;13.488;2023-04-23T03:18:53;12.60;1.00
1377;DHT22;682;52.502;13.488;2023-04-23T03:21:20;12.40;1.00
1377;DHT22;682;52.502;13.488;2023-04-23T03:23:48;12.30;1.00
1377;DHT22;682;52.502;13.488;2023-04-23T03:26:15;12.20;1.00
1377;DHT22;682;52.502;13.488;2023-04-23T03:28:44;12.20;1.00
1377;DHT22;682;52.502;13.488;2023-04-23T03:31:11;12.20;1.00
1377;DHT22;682;52.502;13.488;2023-04-23T03:33:38;12.30;1.00
1377;DHT22;682;52.502;13.488;2023-04-23T03:36:05;12.30;1.00
1377;DHT22;682;52.502;13.488;2023-04-23T03:38:32;12.40;1.00
1377;DHT22;682;52.502;13.488;2023-04-23T03:41:00;12.50;1.00
1377;DHT22;682;52.502;13.488;2023-04-23T03:43:27;12.60;1.00
1377;DHT22;682;52.502;13.488;2023-04-23T03:45:54;12.70;1.00
1377;DHT22;682;52.502;13.488;2023-04-23T03:48:21;12.70;1.00
1377;DHT22;682;52.502;13.488;2023-04-23T03:50:48;12.80;1.00
1377;DHT22;682;52.502;13.488;2023-04-23T03:53:16;12.90;1.00
1377;DHT22;682;52.502;13.488;2023-04-23T03:55:43;13.00;1.00
1377;DHT22;682;52.502;13.488;2023-04-23T03:58:11;13.00;1.00
1377;DHT22;682;52.502;13.488;2023-04-23T04:00:38;13.10;1.00
1377;DHT22;682;52.502;13.488;2023-04-23T04:03:05;13.10;1.00
1377;DHT22;682;52.502;13.488;2023-04-23T04:05:33;13.10;1.00
1377;DHT22;682;52.502;13.488;2023-04-23T04:08:00;13.20;1.00
1377;DHT22;682;52.502;13.488;2023-04-23T04:10:29;13.20;1.00
1377;DHT22;682;52.502;13.488;2023-04-23T04:12:56;13.30;1.00
1377;DHT22;682;52.502;13.488;2023-04-23T04:15:26;13.30;1.00
1377;DHT22;682;52.502;13.488;2023-04-23T04:17:53;13.40;1.00
1377;DHT22;682;52.502;13.488;2023-04-23T04:20:20;13.50;1.00
1377;DHT22;682;52.502;13.488;2023-04-23T04:22:50;13.40;1.00
1377;DHT22;682;52.502;13.488;2023-04-23T04:25:17;13.40;1.00
1377;DHT22;682;52.502;13.488;2023-04-23T04:27:44;13.30;1.00
1377;DHT22;682;52.502;13.488;2023-04-23T04:30:11;13.10;1.00
1377;DHT22;682;52.502;13.488;2023-04-23T04:32:40;12.80;1.00
1377;DHT22;682;52.502;13.488;2023-04-23T04:35:08;12.70;1.00
1377;DHT22;682;52.502;13.488;2023-04-23T04:37:35;12.70;1.00
1377;DHT22;682;52.502;13.488;2023-04-23T04:40:02;12.80;1.00
1377;DHT22;682;52.502;13.488;2023-04-23T04:42:32;12.90;1.00
1377;DHT22;682;52.502;13.488;2023-04-23T04:44:59;13.00;1.00
1377;DHT22;682;52.502;13.488;2023-04-23T04:47:25;13.10;1.00
1377;DHT22;682;52.502;13.488;2023-04-23T04:49:54;13.20;1.00
1377;DHT22;682;52.502;13.488;2023-04-23T04:52:25;13.30;1.00
1377;DHT22;682;52.502;13.488;2023-04-23T04:54:52;13.40;1.00
1377;DHT22;682;52.502;13.488;2023-04-23T04:57:18;13.50;1.00
1377;DHT22;682;52.502;13.488;2023-04-23T04:59:47;13.60;1.00
1377;DHT22;682;52.502;13.488;2023-04-23T05:02:14;13.70;1.00
1377;DHT22;682;52.502;13.488;2023-04-23T05:04:42;13.70;1.00
1377;DHT22;682;52.502;13.488;2023-04-23T05:07:10;13.70;1.00
1377;DHT22;682;52.502;13.488;2023-04-23T05:09:37;13.80;1.00
1377;DHT22;682;52.502;13.488;2023-04-23T05:12:04;13.80;1.00
1377;DHT22;682;52.502;13.488;2023-04-23T05:14:32;13.80;1.00
1377;DHT22;682;52.502;13.488;2023-04-23T05:16:59;13.80;1.00
1377;DHT22;682;52.502;13.488;2023-04-23T05:19:26;13.80;1.00
1377;DHT22;682;52.502;13.488;2023-04-23T05:21:53;13.80;1.00
1377;DHT22;682;52.502;13.488;2023-04-23T05:24:21;14.00;1.00
1377;DHT22;682;52.502;13.488;2023-04-23T05:26:50;14.10;1.00
1377;DHT22;682;52.502;13.488;2023-04-23T05:29:17;14.20;1.00
1377;DHT22;682;52.502;13.488;2023-04-23T05:31:44;14.30;1.00
1377;DHT22;682;52.502;13.488;2023-04-23T05:34:12;14.40;1.00
1377;DHT22;682;52.502;13.488;2023-04-23T05:36:39;14.50;1.00
1377;DHT22;682;52.502;13.488;2023-04-23T05:39:06;14.60;1.00
1377;DHT22;682;52.502;13.488;2023-04-23T05:41:37;14.60;1.00
1377;DHT22;682;52.502;13.488;2023-04-23T05:44:04;14.70;1.00
1377;DHT22;682;52.502;13.488;2023-04-23T05:46:31;14.80;1.00
1377;DHT22;682;52.502;13.488;2023-04-23T05:49:00;14.90;1.00
1377;DHT22;682;52.502;13.488;2023-04-23T05:51:26;14.90;1.00
1377;DHT22;682;52.502;13.488;2023-04-23T05:53:53;15.00;1.00
1377;DHT22;682;52.502;13.488;2023-04-23T05:56:20;15.00;1.00
1377;DHT22;682;52.502;13.488;2023-04-23T05:58:49;15.20;1.00
1377;DHT22;682;52.502;13.488;2023-04-23T06:01:16;15.40;1.00
1377;DHT22;682;52.502;13.488;2023-04-23T06:03:43;15.50;1.00
1377;DHT22;682;52.502;13.488;2023-04-23T06:06:11;15.70;1.00
1377;DHT22;682;52.502;13.488;2023-04-23T06:08:41;15.60;1.00
1377;DHT22;682;52.502;13.488;2023-04-23T06:11:08;15.60;1.00
1377;DHT22;682;52.502;13.488;2023-04-23T06:13:35;15.80;1.00
1377;DHT22;682;52.502;13.488;2023-04-23T06:16:06;15.90;1.00
1377;DHT22;682;52.502;13.488;2023-04-23T06:18:33;15.90;1.00
1377;DHT22;682;52.502;13.488;2023-04-23T06:21:00;16.00;1.00
1377;DHT22;682;52.502;13.488;2023-04-23T06:23:29;16.10;1.00
1377;DHT22;682;52.502;13.488;2023-04-23T06:25:56;16.10;1.00
1377;DHT22;682;52.502;13.488;2023-04-23T06:28:23;16.20;1.00
1377;DHT22;682;52.502;13.488;2023-04-23T06:30:50;16.30;1.00
1377;DHT22;682;52.502;13.488;2023-04-23T06:33:18;16.50;1.00
1377;DHT22;682;52.502;13.488;2023-04-23T06:35:45;16.60;1.00
1377;DHT22;682;52.502;13.488;2023-04-23T06:38:12;16.80;1.00
1377;DHT22;682;52.502;13.488;2023-04-23T06:40:39;16.90;1.00
1377;DHT22;682;52.502;13.488;2023-04-23T06:43:06;17.00;1.00
1377;DHT22;682;52.502;13.488;2023-04-23T06:45:34;17.00;1.00
1377;DHT22;682;52.502;13.488;2023-04-23T06:48:01;17.00;1.00
1377;DHT22;682;52.502;13.488;2023-04-23T06:50:30;17.00;1.00
1377;DHT22;682;52.502;13.488;2023-04-23T06:52:57;17.20;1.00
1377;DHT22;682;52.502;13.488;2023-04-23T06:55:24;17.30;1.00
1377;DHT22;682;52.502;13.488;2023-04-23T06:57:55;17.50;1.00
1377;DHT22;682;52.502;13.488;2023-04-23T07:00:22;17.70;1.00
1377;DHT22;682;52.502;13.488;2023-04-23T07:02:49;17.70;1.00
1377;DHT22;682;52.502;13.488;2023-04-23T07:05:16;17.80;1.00
1377;DHT22;682;52.502;13.488;2023-04-23T07:07:45;17.70;1.00
1377;DHT22;682;52.502;13.488;2023-04-23T07:10:12;17.60;1.00
1377;DHT22;682;52.502;13.488;2023-04-23T07:12:39;17.40;1.00
1377;DHT22;682;52.502;13.488;2023-04-23T07:15:07;17.10;1.00
1377;DHT22;682;52.502;13.488;2023-04-23T07:17:34;17.00;1.00
1377;DHT22;682;52.502;13.488;2023-04-23T07:20:01;16.90;1.00
1377;DHT22;682;52.502;13.488;2023-04-23T07:22:31;16.80;1.00
1377;DHT22;682;52.502;13.488;2023-04-23T07:25:00;16.60;1.00
1377;DHT22;682;52.502;13.488;2023-04-23T07:27:27;16.30;1.00
1377;DHT22;682;52.502;13.488;2023-04-23T07:29:54;16.20;1.00
1377;DHT22;682;52.502;13.488;2023-04-23T07:32:21;15.90;1.00
1377;DHT22;682;52.502;13.488;2023-04-23T07:34:52;15.70;1.00
1377;DHT22;682;52.502;13.488;2023-04-23T07:37:20;15.40;1.00
1377;DHT22;682;52.502;13.488;2023-04-23T07:39:47;15.40;1.00
1377;DHT22;682;52.502;13.488;2023-04-23T07:42:15;15.40;1.00
1377;DHT22;682;52.502;13.488;2023-04-23T07:44:42;15.20;1.00
1377;DHT22;682;52.502;13.488;2023-04-23T07:47:10;15.10;1.00
1377;DHT22;682;52.502;13.488;2023-04-23T07:49:38;15.00;1.00
1377;DHT22;682;52.502;13.488;2023-04-23T07:52:05;14.90;1.00
1377;DHT22;682;52.502;13.488;2023-04-23T07:54:32;14.90;1.00
1377;DHT22;682;52.502;13.488;2023-04-23T07:56:59;14.90;1.00
1377;DHT22;682;52.502;13.488;2023-04-23T07:59:28;14.80;1.00
1377;DHT22;682;52.502;13.488;2023-04-23T08:01:55;14.90;1.00
1377;DHT22;682;52.502;13.488;2023-04-23T08:04:22;15.00;1.00
1377;DHT22;682;52.502;13.488;2023-04-23T08:06:50;15.00;1.00
1377;DHT22;682;52.502;13.488;2023-04-23T08:09:17;15.00;1.00
1377;DHT22;682;52.502;13.488;2023-04-23T08:11:44;15.00;1.00
1377;DHT22;682;52.502;13.488;2023-04-23T08:14:10;15.00;1.00
1377;DHT22;682;52.502;13.488;2023-04-23T08:16:41;15.10;1.00
1377;DHT22;682;52.502;13.488;2023-04-23T08:19:08;15.20;1.00
1377;DHT22;682;52.502;13.488;2023-04-23T08:21:36;15.20;1.00
1377;DHT22;682;52.502;13.488;2023-04-23T08:24:04;15.10;1.00
1377;DHT22;682;52.502;13.488;2023-04-23T08:26:32;15.10;1.00
1377;DHT22;682;52.502;13.488;2023-04-23T08:28:59;15.20;1.00
1377;DHT22;682;52.502;13.488;2023-04-23T08:31:26;15.20;1.00
1377;DHT22;682;52.502;13.488;2023-04-23T08:33:55;15.30;1.00
1377;DHT22;682;52.502;13.488;2023-04-23T08:36:22;15.20;1.00
1377;DHT22;682;52.502;13.488;2023-04-23T08:38:50;15.20;1.00
1377;DHT22;682;52.502;13.488;2023-04-23T08:41:18;15.40;1.00
1377;DHT22;682;52.502;13.488;2023-04-23T08:43:51;15.60;1.00
1377;DHT22;682;52.502;13.488;2023-04-23T08:46:22;15.70;1.00
1377;DHT22;682;52.502;13.488;2023-04-23T08:48:51;15.70;1.00
1377;DHT22;682;52.502;13.488;2023-04-23T08:51:22;15.80;1.00
1377;DHT22;682;52.502;13.488;2023-04-23T08:53:52;15.80;1.00
1377;DHT22;682;52.502;13.488;2023-04-23T08:56:23;15.90;1.00
1377;DHT22;682;52.502;13.488;2023-04-23T08:58:50;16.00;1.00
1377;DHT22;682;52.502;13.488;2023-04-23T09:01:18;16.10;1.00
1377;DHT22;682;52.502;13.488;2023-04-23T09:03:47;16.30;1.00
1377;DHT22;682;52.502;13.488;2023-04-23T09:06:22;16.50;1.00
1377;DHT22;682;52.502;13.488;2023-04-23T09:08:50;16.80;1.00
1377;DHT22;682;52.502;13.488;2023-04-23T09:11:18;16.90;1.00
1377;DHT22;682;52.502;13.488;2023-04-23T09:13:46;16.80;1.00
1377;DHT22;682;52.502;13.488;2023-04-23T09:16:14;16.60;1.00
1377;DHT22;682;52.502;13.488;2023-04-23T09:18:41;16.40;1.00
1377;DHT22;682;52.502;13.488;2023-04-23T09:21:08;16.30;1.00
1377;DHT22;682;52.502;13.488;2023-04-23T09:23:39;16.30;1.00
1377;DHT22;682;52.502;13.488;2023-04-23T09:26:07;16.40;1.00
1377;DHT22;682;52.502;13.488;2023-04-23T09:28:34;16.40;1.00
1377;DHT22;682;52.502;13.488;2023-04-23T09:31:03;16.30;1.00
1377;DHT22;682;52.502;13.488;2023-04-23T09:33:33;16.30;1.00
1377;DHT22;682;52.502;13.488;2023-04-23T09:36:07;16.10;1.00
1377;DHT22;682;52.502;13.488;2023-04-23T09:38:35;16.00;1.00
1377;DHT22;682;52.502;13.488;2023-04-23T09:41:22;15.90;1.00
1377;DHT22;682;52.502;13.488;2023-04-23T09:43:51;15.80;1.00
1377;DHT22;682;52.502;13.488;2023-04-23T09:46:18;15.60;1.00
1377;DHT22;682;52.502;13.488;2023-04-23T09:48:45;15.30;1.00
1377;DHT22;682;52.502;13.488;2023-04-23T09:51:13;15.10;1.00
1377;DHT22;682;52.502;13.488;2023-04-23T09:53:41;15.10;1.00
1377;DHT22;682;52.502;13.488;2023-04-23T09:56:08;14.90;1.00
1377;DHT22;682;52.502;13.488;2023-04-23T09:58:37;14.90;1.00
1377;DHT22;682;52.502;13.488;2023-04-23T10:01:08;14.70;1.00
1377;DHT22;682;52.502;13.488;2023-04-23T10:03:34;14.60;1.00
1377;DHT22;682;52.502;13.488;2023-04-23T10:06:03;14.50;1.00
1377;DHT22;682;52.502;13.488;2023-04-23T10:08:31;14.40;1.00
1377;DHT22;682;52.502;13.488;2023-04-23T10:10:58;14.30;1.00
1377;DHT22;682;52.502;13.488;2023-04-23T10:13:25;14.30;1.00
1377;DHT22;682;52.502;13.488;2023-04-23T10:15:54;14.30;1.00
1377;DHT22;682;52.502;13.488;2023-04-23T10:18:21;14.30;1.00
1377;DHT22;682;52.502;13.488;2023-04-23T10:20:51;14.30;1.00
1377;DHT22;682;52.502;13.488;2023-04-23T10:23:21;14.40;1.00
1377;DHT22;682;52.502;13.488;2023-04-23T10:25:50;14.40;1.00
1377;DHT22;682;52.502;13.488;2023-04-23T10:28:18;14.40;1.00
1377;DHT22;682;52.502;13.488;2023-04-23T10:30:56;14.40;1.00
1377;DHT22;682;52.502;13.488;2023-04-23T10:33:25;14.40;1.00
1377;DHT22;682;52.502;13.488;2023-04-23T10:35:55;14.50;1.00
1377;DHT22;682;52.502;13.488;2023-04-23T10:38:23;14.70;1.00
1377;DHT22;682;52.502;13.488;2023-04-23T10:40:54;14.90;1.00
1377;DHT22;682;52.502;13.488;2023-04-23T10:43:23;15.30;1.00
1377;DHT22;682;52.502;13.488;2023-04-23T10:45:50;15.60;1.00
1377;DHT22;682;52.502;13.488;2023-04-23T10:48:21;15.80;1.00
1377;DHT22;682;52.502;13.488;2023-04-23T10:50:56;16.30;1.00
1377;DHT22;682;52.502;13.488;2023-04-23T10:53:23;16.70;1.00
1377;DHT22;682;52.502;13.488;2023-04-23T10:56:03;17.00;1.00
1377;DHT22;682;52.502;13.488;2023-04-23T10:58:48;17.40;1.00
1377;DHT22;682;52.502;13.488;2023-04-23T11:01:16;17.50;1.00
1377;DHT22;682;52.502;13.488;2023-04-23T11:03:47;17.70;1.00
1377;DHT22;682;52.502;13.488;2023-04-23T11:06:50;17.90;1.00
1377;DHT22;682;52.502;13.488;2023-04-23T11:09:37;18.00;1.00
1377;DHT22;682;52.502;13.488;2023-04-23T11:12:07;17.80;1.00
1377;DHT22;682;52.502;13.488;2023-04-23T11:14:44;17.70;1.00
1377;DHT22;682;52.502;13.488;2023-04-23T11:17:13;17.80;1.00
1377;DHT22;682;52.502;13.488;2023-04-23T11:20:08;17.90;1.00
1377;DHT22;682;52.502;13.488;2023-04-23T11:22:36;17.80;1.00
1377;DHT22;682;52.502;13.488;2023-04-23T11:25:07;17.70;1.00
1377;DHT22;682;52.502;13.488;2023-04-23T11:27:38;17.70;1.00
1377;DHT22;682;52.502;13.488;2023-04-23T11:30:10;17.60;1.00
1377;DHT22;682;52.502;13.488;2023-04-23T11:32:38;17.80;1.00
1377;DHT22;682;52.502;13.488;2023-04-23T11:35:07;17.90;1.00
1377;DHT22;682;52.502;13.488;2023-04-23T11:37:38;18.20;1.00
1377;DHT22;682;52.502;13.488;2023-04-23T11:40:07;18.60;1.00
1377;DHT22;682;52.502;13.488;2023-04-23T11:42:40;18.90;1.00
1377;DHT22;682;52.502;13.488;2023-04-23T11:45:14;19.00;1.00
1377;DHT22;682;52.502;13.488;2023-04-23T11:47:42;19.10;1.00
1377;DHT22;682;52.502;13.488;2023-04-23T11:50:16;19.40;1.00
1377;DHT22;682;52.502;13.488;2023-04-23T11:52:45;19.40;1.00
1377;DHT22;682;52.502;13.488;2023-04-23T11:55:12;19.40;1.00
1377;DHT22;682;52.502;13.488;2023-04-23T11:57:43;19.40;1.00
1377;DHT22;682;52.502;13.488;2023-04-23T12:00:16;20.30;1.00
1377;DHT22;682;52.502;13.488;2023-04-23T12:02:51;22.60;1.00
1377;DHT22;682;52.502;13.488;2023-04-23T12:05:21;25.60;1.00
1377;DHT22;682;52.502;13.488;2023-04-23T12:07:49;26.50;1.00
1377;DHT22;682;52.502;13.488;2023-04-23T12:10:17;26.90;1.00
1377;DHT22;682;52.502;13.488;2023-04-23T12:12:48;27.00;1.00
1377;DHT22;682;52.502;13.488;2023-04-23T12:15:16;27.20;1.00
1377;DHT22;682;52.502;13.488;2023-04-23T12:17:48;27.20;1.00
1377;DHT22;682;52.502;13.488;2023-04-23T12:20:20;27.80;1.00
1377;DHT22;682;52.502;13.488;2023-04-23T12:22:47;28.30;1.00
1377;DHT22;682;52.502;13.488;2023-04-23T12:25:14;27.10;1.00
1377;DHT22;682;52.502;13.488;2023-04-23T12:27:43;25.90;1.00
1377;DHT22;682;52.502;13.488;2023-04-23T12:30:11;24.50;1.00
1377;DHT22;682;52.502;13.488;2023-04-23T12:32:40;23.40;1.00
1377;DHT22;682;52.502;13.488;2023-04-23T12:35:08;22.60;1.00
1377;DHT22;682;52.502;13.488;2023-04-23T12:37:37;22.20;1.00
1377;DHT22;682;52.502;13.488;2023-04-23T12:40:05;22.40;1.00
1377;DHT22;682;52.502;13.488;2023-04-23T12:42:33;22.30;1.00
1377;DHT22;682;52.502;13.488;2023-04-23T12:45:06;22.60;1.00
1377;DHT22;682;52.502;13.488;2023-04-23T12:47:33;24.10;1.00
1377;DHT22;682;52.502;13.488;2023-04-23T12:50:01;25.70;1.00
1377;DHT22;682;52.502;13.488;2023-04-23T12:52:29;27.40;1.00
1377;DHT22;682;52.502;13.488;2023-04-23T12:54:58;27.80;1.00
1377;DHT22;682;52.502;13.488;2023-04-23T12:57:25;28.80;1.00
1377;DHT22;682;52.502;13.488;2023-04-23T12:59:53;30.00;1.00
1377;DHT22;682;52.502;13.488;2023-04-23T13:02:21;30.20;1.00
1377;DHT22;682;52.502;13.488;2023-04-23T13:04:48;31.40;1.00
1377;DHT22;682;52.502;13.488;2023-04-23T13:07:19;31.70;1.00
1377;DHT22;682;52.502;13.488;2023-04-23T13:09:46;32.80;1.00
1377;DHT22;682;52.502;13.488;2023-04-23T13:12:15;32.90;1.00
1377;DHT22;682;52.502;13.488;2023-04-23T13:14:42;33.10;1.00
1377;DHT22;682;52.502;13.488;2023-04-23T13:17:09;33.00;1.00
1377;DHT22;682;52.502;13.488;2023-04-23T13:19:38;33.50;1.00
1377;DHT22;682;52.502;13.488;2023-04-23T13:22:05;33.60;1.00
1377;DHT22;682;52.502;13.488;2023-04-23T13:24:33;33.40;1.00
1377;DHT22;682;52.502;13.488;2023-04-23T13:27:00;33.30;1.00
1377;DHT22;682;52.502;13.488;2023-04-23T13:29:28;33.10;1.00
1377;DHT22;682;52.502;13.488;2023-04-23T13:31:56;33.00;1.00
1377;DHT22;682;52.502;13.488;2023-04-23T13:34:25;32.70;1.00
1377;DHT22;682;52.502;13.488;2023-04-23T13:36:52;32.90;1.00
1377;DHT22;682;52.502;13.488;2023-04-23T13:39:19;33.30;1.00
1377;DHT22;682;52.502;13.488;2023-04-23T13:41:49;33.10;1.00
1377;DHT22;682;52.502;13.488;2023-04-23T13:44:15;32.30;1.00
1377;DHT22;682;52.502;13.488;2023-04-23T13:46:44;32.70;1.00
1377;DHT22;682;52.502;13.488;2023-04-23T13:49:11;33.30;1.00
1377;DHT22;682;52.502;13.488;2023-04-23T13:51:38;33.60;1.00
1377;DHT22;682;52.502;13.488;2023-04-23T13:54:07;33.70;1.00
1377;DHT22;682;52.502;13.488;2023-04-23T13:56:34;31.80;1.00
1377;DHT22;682;52.502;13.488;2023-04-23T13:59:02;30.90;1.00
1377;DHT22;682;52.502;13.488;2023-04-23T14:01:29;30.40;1.00
1377;DHT22;682;52.502;13.488;2023-04-23T14:03:58;29.20;1.00
1377;DHT22;682;52.502;13.488;2023-04-23T14:06:25;29.70;1.00
1377;DHT22;682;52.502;13.488;2023-04-23T14:08:52;30.50;1.00
1377;DHT22;682;52.502;13.488;2023-04-23T14:11:20;30.60;1.00
1377;DHT22;682;52.502;13.488;2023-04-23T14:13:47;30.00;1.00
1377;DHT22;682;52.502;13.488;2023-04-23T14:16:14;29.50;1.00
1377;DHT22;682;52.502;13.488;2023-04-23T14:18:42;28.40;1.00
1377;DHT22;682;52.502;13.488;2023-04-23T14:21:10;27.50;1.00
1377;DHT22;682;52.502;13.488;2023-04-23T14:23:48;27.90;1.00
1377;DHT22;682;52.502;13.488;2023-04-23T14:26:27;29.30;1.00
1377;DHT22;682;52.502;13.488;2023-04-23T14:28:56;30.80;1.00
1377;DHT22;682;52.502;13.488;2023-04-23T14:31:23;31.10;1.00
1377;DHT22;682;52.502;13.488;2023-04-23T14:33:51;31.30;1.00
1377;DHT22;682;52.502;13.488;2023-04-23T14:36:20;29.80;1.00
1377;DHT22;682;52.502;13.488;2023-04-23T14:38:46;29.30;1.00
1377;DHT22;682;52.502;13.488;2023-04-23T14:41:14;29.60;1.00
1377;DHT22;682;52.502;13.488;2023-04-23T14:43:41;30.10;1.00
1377;DHT22;682;52.502;13.488;2023-04-23T14:46:07;29.20;1.00
1377;DHT22;682;52.502;13.488;2023-04-23T14:48:35;28.70;1.00
1377;DHT22;682;52.502;13.488;2023-04-23T14:51:02;28.90;1.00
1377;DHT22;682;52.502;13.488;2023-04-23T14:53:31;28.70;1.00
1377;DHT22;682;52.502;13.488;2023-04-23T14:55:58;29.30;1.00
1377;DHT22;682;52.502;13.488;2023-04-23T14:58:25;30.10;1.00
1377;DHT22;682;52.502;13.488;2023-04-23T15:00:52;30.80;1.00
1377;DHT22;682;52.502;13.488;2023-04-23T15:03:19;30.30;1.00
1377;DHT22;682;52.502;13.488;2023-04-23T15:05:46;29.40;1.00
1377;DHT22;682;52.502;13.488;2023-04-23T15:08:13;29.30;1.00
1377;DHT22;682;52.502;13.488;2023-04-23T15:10:42;29.40;1.00
1377;DHT22;682;52.502;13.488;2023-04-23T15:13:30;28.30;1.00
1377;DHT22;682;52.502;13.488;2023-04-23T15:16:02;26.70;1.00
1377;DHT22;682;52.502;13.488;2023-04-23T15:18:33;26.10;1.00
1377;DHT22;682;52.502;13.488;2023-04-23T15:21:01;26.40;1.00
1377;DHT22;682;52.502;13.488;2023-04-23T15:23:30;26.60;1.00
1377;DHT22;682;52.502;13.488;2023-04-23T15:25:58;27.20;1.00
1377;DHT22;682;52.502;13.488;2023-04-23T15:28:26;26.80;1.00
1377;DHT22;682;52.502;13.488;2023-04-23T15:30:53;25.60;1.00
1377;DHT22;682;52.502;13.488;2023-04-23T15:33:20;25.00;1.00
1377;DHT22;682;52.502;13.488;2023-04-23T15:35:47;24.90;1.00
1377;DHT22;682;52.502;13.488;2023-04-23T15:38:16;25.90;1.00
1377;DHT22;682;52.502;13.488;2023-04-23T15:40:43;27.40;1.00
1377;DHT22;682;52.502;13.488;2023-04-23T15:43:12;28.60;1.00
1377;DHT22;682;52.502;13.488;2023-04-23T15:45:39;29.20;1.00
1377;DHT22;682;52.502;13.488;2023-04-23T15:48:07;28.00;1.00
1377;DHT22;682;52.502;13.488;2023-04-23T15:50:34;27.40;1.00
1377;DHT22;682;52.502;13.488;2023-04-23T15:53:02;26.50;1.00
1377;DHT22;682;52.502;13.488;2023-04-23T15:55:29;25.70;1.00
1377;DHT22;682;52.502;13.488;2023-04-23T15:57:57;24.50;1.00
1377;DHT22;682;52.502;13.488;2023-04-23T16:00:27;23.40;1.00
1377;DHT22;682;52.502;13.488;2023-04-23T16:02:54;23.50;1.00
1377;DHT22;682;52.502;13.488;2023-04-23T16:05:21;24.40;1.00
1377;DHT22;682;52.502;13.488;2023-04-23T16:07:48;25.20;1.00
1377;DHT22;682;52.502;13.488;2023-04-23T16:10:16;25.40;1.00
1377;DHT22;682;52.502;13.488;2023-04-23T16:12:44;25.00;1.00
1377;DHT22;682;52.502;13.488;2023-04-23T16:15:13;24.70;1.00
1377;DHT22;682;52.502;13.488;2023-04-23T16:17:41;24.20;1.00
1377;DHT22;682;52.502;13.488;2023-04-23T16:20:09;23.40;1.00
1377;DHT22;682;52.502;13.488;2023-04-23T16:22:36;22.70;1.00
1377;DHT22;682;52.502;13.488;2023-04-23T16:25:04;22.00;1.00